Hauptseite
METAR-TAF:

METAR-TAF

Flughäfen :

Flughafen Bergamo

Bergamo, Italien

Breite: 45-40N, Länge: 009-42E, Höhe: 238 m

Beobachtung

Neuester Wetterbericht von vor 37 Minuten, um 23:50 UTC
Wind 5 kt aus Nord/Nordost
Temperatur 22°C
Luftfeuchtigkeit 73%
Luftdruck 1019 hPa
Sichtweite 10 km oder mehr
Aufgelockert bewölkt in der Höhe von 6000 ft

METAR: LIME 202350Z 02005KT 9999 SCT060 22/17 Q1019 NOSIG

Zeit: 02:27 (00:27 UTC)

Prognose

Neuester Wetterbericht von vor 1 Stunde und 27 Minuten, um 23:00 UTC
Gültige Prognose vom 21 um 00 UTC bis 21 um 24 UTC
Wind 6 kt aus Nord/Nordost
Sichtweite 10 km oder mehr
Aufgelockert bewölkt in der Höhe von 5000 ft

TAF: LIME 202300Z 2100/2124 03006KT 9999 SCT050

Wetterbeobachtungen und Prognosen von mehr als 4000 Flughäfen (METAR und TAF Bericht).

Die verfügbaren Stationen werden durch gelbe und rote Markierungen auf der Karte dargestellt.

Führen Sie die Maus auf sie, um den Namen der Station zu sehen.

Darauf klicken, um die Beobachtung von Wetterbeobachtungen und Prognosen zu sehen.

Um die Karte zu ändern : klicken Sie auf den grünen Tasten mit einem schwarzen Kreuz Zum Vergrößern, auf den grünen Button mit einem Gedankenstrich zu verkleinern, oder auf die grünen Pfeile für benachbarte Karten.


METAR-TAF: